Time;durP1;ratioP1;P1;durP2;ratioP2;P2;SDS_P1;SDS_P2;PMS_P1;PMS_P2;Temp;Humidity;BMP_temperature;BMP_pressure;BME280_temperature;BME280_humidity;BME280_pressure;Samples;Min_cycle;Max_cycle;Signal;HPM_P1;HPM_P2
2024/03/20 00:00:47;;;;;;;10.30;7.47;;;8.20;91.10;;;;;;6127346;23;20431;-59
2024/03/20 00:03:15;;;;;;;10.77;7.43;;;8.30;91.30;;;;;;6126643;23;20423;-59
2024/03/20 00:05:43;;;;;;;10.93;6.37;;;8.30;91.20;;;;;;6126682;23;20497;-62
2024/03/20 00:08:10;;;;;;;10.90;7.03;;;8.30;91.30;;;;;;6127201;23;20491;-59
2024/03/20 00:10:38;;;;;;;11.13;7.80;;;8.30;91.50;;;;;;6127834;23;20413;-59
2024/03/20 00:13:05;;;;;;;14.00;8.27;;;8.20;91.70;;;;;;6126900;23;20483;-61
2024/03/20 00:15:35;;;;;;;9.00;6.70;;;8.20;92.00;;;;;;6162214;23;20457;-59
2024/03/20 00:18:03;;;;;;;9.83;7.20;;;8.20;92.00;;;;;;6185788;23;20389;-61
2024/03/20 00:20:31;;;;;;;11.10;7.20;;;8.20;92.30;;;;;;6184316;23;20488;-58
2024/03/20 00:22:59;;;;;;;15.80;9.00;;;8.20;92.80;;;;;;6163173;23;20422;-61
2024/03/20 00:25:26;;;;;;;13.17;8.03;;;8.10;92.40;;;;;;6152891;23;21003;-61
2024/03/20 00:27:53;;;;;;;13.50;8.20;;;8.10;92.80;;;;;;6152755;23;20425;-60
2024/03/20 00:30:20;;;;;;;10.97;8.80;;;8.00;93.20;;;;;;6153076;23;20402;-62
2024/03/20 00:32:48;;;;;;;10.80;7.90;;;8.00;93.30;;;;;;6154289;23;20430;-60
2024/03/20 00:35:15;;;;;;;13.00;8.13;;;8.00;93.50;;;;;;6154164;23;20905;-63
2024/03/20 00:37:42;;;;;;;16.00;7.67;;;8.20;93.60;;;;;;6154060;23;20462;-63
2024/03/20 00:40:11;;;;;;;11.80;7.67;;;8.00;93.50;;;;;;6154232;23;20489;-63
2024/03/20 00:42:39;;;;;;;17.20;11.00;;;8.00;93.90;;;;;;6154186;23;20426;-63
2024/03/20 00:45:07;;;;;;;12.40;6.80;;;7.90;94.10;;;;;;6153499;23;20444;-61
2024/03/20 00:47:33;;;;;;;11.70;7.60;;;7.80;94.50;;;;;;6152589;23;20441;-63
2024/03/20 00:50:00;;;;;;;13.60;7.37;;;7.80;94.60;;;;;;6154154;23;20414;-62
2024/03/20 00:52:27;;;;;;;11.50;6.80;;;7.80;95.00;;;;;;6154173;23;20920;-62
2024/03/20 00:54:54;;;;;;;12.27;8.47;;;7.70;95.20;;;;;;6153910;23;20476;-61
2024/03/20 00:57:22;;;;;;;11.67;8.50;;;7.70;95.60;;;;;;6154110;23;20481;-62
2024/03/20 00:59:49;;;;;;;12.33;6.93;;;7.60;96.00;;;;;;6153701;23;20403;-62
2024/03/20 01:02:16;;;;;;;11.27;7.03;;;7.60;96.20;;;;;;6153513;23;20422;-61
2024/03/20 01:04:43;;;;;;;11.47;7.37;;;7.60;96.40;;;;;;6154151;23;20567;-62
2024/03/20 01:07:10;;;;;;;11.27;8.37;;;7.60;96.70;;;;;;6153773;23;20417;-63
2024/03/20 01:09:37;;;;;;;10.20;6.30;;;7.60;96.80;;;;;;6153930;23;20414;-61
2024/03/20 01:12:05;;;;;;;13.07;8.03;;;7.60;97.20;;;;;;6153968;23;20791;-61
2024/03/20 01:14:33;;;;;;;11.33;8.20;;;7.60;97.30;;;;;;6153818;23;20504;-61
2024/03/20 01:17:01;;;;;;;11.80;7.43;;;7.60;97.50;;;;;;6154038;23;20489;-59
2024/03/20 01:19:27;;;;;;;13.47;8.50;;;7.60;97.70;;;;;;6153731;23;20407;-61
2024/03/20 01:21:54;;;;;;;10.50;7.23;;;7.60;97.90;;;;;;6154818;23;20456;-61
2024/03/20 01:24:21;;;;;;;11.97;7.53;;;7.50;98.50;;;;;;6154319;23;20781;-61
2024/03/20 01:26:48;;;;;;;11.60;6.93;;;7.50;98.40;;;;;;6153944;23;20837;-62
2024/03/20 01:29:15;;;;;;;14.23;7.60;;;7.50;98.80;;;;;;6154192;23;20430;-63
2024/03/20 01:31:44;;;;;;;9.37;6.30;;;7.40;99.30;;;;;;6154104;23;20791;-60
2024/03/20 01:34:11;;;;;;;11.30;7.63;;;7.40;99.50;;;;;;6154349;23;20445;-61
2024/03/20 01:36:38;;;;;;;13.77;8.60;;;7.40;99.70;;;;;;6154332;23;20431;-63
2024/03/20 01:39:05;;;;;;;14.47;8.77;;;7.30;99.90;;;;;;6157163;23;20453;-63
2024/03/20 01:41:32;;;;;;;12.20;8.40;;;7.30;99.90;;;;;;6153638;23;20501;-59
2024/03/20 01:43:59;;;;;;;14.87;7.87;;;7.30;99.90;;;;;;6154045;23;20717;-63
2024/03/20 01:46:31;;;;;;;10.03;6.93;;;7.30;99.90;;;;;;6153445;23;20820;-60
2024/03/20 01:48:59;;;;;;;10.63;7.20;;;7.20;99.90;;;;;;6154344;23;20437;-62
2024/03/20 01:51:27;;;;;;;15.43;7.43;;;7.20;99.90;;;;;;6153836;23;20409;-62
2024/03/20 01:53:56;;;;;;;13.67;8.17;;;7.20;99.90;;;;;;6153820;23;20510;-60
2024/03/20 01:56:23;;;;;;;12.23;7.50;;;7.20;99.90;;;;;;6154209;23;21282;-60
2024/03/20 01:58:50;;;;;;;11.90;7.40;;;7.20;99.90;;;;;;6153620;23;20406;-62
2024/03/20 02:01:17;;;;;;;17.03;8.63;;;7.20;99.90;;;;;;6153992;23;20452;-60
2024/03/20 02:03:44;;;;;;;14.73;8.10;;;7.20;99.90;;;;;;6153338;23;20458;-62
2024/03/20 02:06:22;;;;;;;14.60;7.73;;;7.10;99.90;;;;;;6153656;23;20477;-61
2024/03/20 02:08:50;;;;;;;11.33;7.70;;;7.10;99.90;;;;;;6155459;23;20390;-60
2024/03/20 02:11:17;;;;;;;13.60;8.50;;;7.10;99.90;;;;;;6155391;23;20433;-62
2024/03/20 02:13:45;;;;;;;11.60;7.33;;;7.10;99.90;;;;;;6155150;23;20422;-58
2024/03/20 02:16:12;;;;;;;13.27;7.30;;;7.20;99.90;;;;;;6155402;23;20441;-59
2024/03/20 02:18:39;;;;;;;10.77;7.13;;;7.10;99.90;;;;;;6155394;23;20409;-61
2024/03/20 02:21:09;;;;;;;13.27;8.13;;;7.00;99.90;;;;;;6155541;23;20433;-62
2024/03/20 02:23:35;;;;;;;15.30;8.33;;;7.00;99.90;;;;;;6155600;23;20979;-61
2024/03/20 02:26:02;;;;;;;14.33;8.50;;;7.00;99.90;;;;;;6155980;23;20454;-61
2024/03/20 02:28:29;;;;;;;11.30;6.47;;;6.90;99.90;;;;;;6155761;23;20452;-62
2024/03/20 02:30:56;;;;;;;16.93;8.03;;;6.90;99.90;;;;;;6155617;23;20437;-60
2024/03/20 02:33:25;;;;;;;12.70;9.10;;;6.90;99.90;;;;;;6155352;23;20756;-63
2024/03/20 02:35:53;;;;;;;11.17;7.83;;;6.90;99.90;;;;;;6155208;23;20401;-62
2024/03/20 02:38:21;;;;;;;12.13;7.80;;;6.90;99.90;;;;;;6155572;23;20402;-60
2024/03/20 02:40:49;;;;;;;13.03;8.30;;;6.90;99.90;;;;;;6155708;23;20444;-61
2024/03/20 02:43:16;;;;;;;11.37;8.23;;;7.00;99.90;;;;;;6155220;23;20944;-60
2024/03/20 02:45:43;;;;;;;12.53;8.00;;;6.90;99.90;;;;;;6155284;23;20941;-61
2024/03/20 02:48:10;;;;;;;14.23;8.97;;;6.80;99.90;;;;;;6155292;23;20437;-60
2024/03/20 02:50:37;;;;;;;14.77;8.60;;;6.90;99.90;;;;;;6155331;23;20412;-60
2024/03/20 02:53:04;;;;;;;17.97;9.23;;;6.90;99.90;;;;;;6155151;23;20510;-61
2024/03/20 02:55:33;;;;;;;13.20;7.83;;;6.90;99.90;;;;;;6155531;23;20398;-62
2024/03/20 02:58:00;;;;;;;13.00;8.37;;;6.90;99.90;;;;;;6155346;23;20416;-61
2024/03/20 03:00:27;;;;;;;12.60;8.30;;;6.90;99.90;;;;;;6155157;23;20915;-61
2024/03/20 03:02:54;;;;;;;21.43;9.77;;;6.90;99.90;;;;;;6154453;23;20429;-63
2024/03/20 03:05:22;;;;;;;18.20;7.80;;;6.90;99.90;;;;;;6154710;23;20441;-65
2024/03/20 03:07:49;;;;;;;14.00;8.50;;;6.90;99.90;;;;;;6155448;23;20406;-61
2024/03/20 03:10:16;;;;;;;13.20;8.73;;;6.90;99.90;;;;;;6155369;23;20790;-61
2024/03/20 03:12:45;;;;;;;15.40;8.87;;;6.90;99.90;;;;;;6154696;23;20434;-63
2024/03/20 03:15:12;;;;;;;17.17;6.90;;;7.00;99.90;;;;;;6154815;23;20501;-61
2024/03/20 03:17:40;;;;;;;12.73;7.37;;;6.90;99.90;;;;;;6155131;23;20437;-61
2024/03/20 03:20:13;;;;;;;13.80;7.00;;;7.00;99.90;;;;;;6155077;23;20438;-61
2024/03/20 03:22:41;;;;;;;15.83;8.33;;;7.00;99.90;;;;;;6154747;23;20422;-58
2024/03/20 03:25:08;;;;;;;14.37;7.80;;;7.10;99.90;;;;;;6154968;23;20896;-61
2024/03/20 03:27:35;;;;;;;17.40;8.20;;;7.00;99.90;;;;;;6155140;23;20481;-59
2024/03/20 03:30:04;;;;;;;15.17;7.73;;;7.00;99.90;;;;;;6154515;23;20496;-61
2024/03/20 03:32:31;;;;;;;15.23;8.73;;;6.90;99.90;;;;;;6154362;23;20463;-60
2024/03/20 03:34:58;;;;;;;15.33;9.47;;;7.00;99.90;;;;;;6155170;23;20473;-61
2024/03/20 03:37:28;;;;;;;15.37;8.77;;;6.90;99.90;;;;;;6155355;23;20434;-63
2024/03/20 03:39:55;;;;;;;16.33;9.10;;;6.90;99.90;;;;;;6155263;23;20430;-60
2024/03/20 03:42:22;;;;;;;13.17;8.33;;;6.80;99.90;;;;;;6154416;23;20453;-61
2024/03/20 03:44:49;;;;;;;16.23;8.33;;;6.80;99.90;;;;;;6154979;23;20404;-59
2024/03/20 03:47:17;;;;;;;13.87;8.43;;;6.80;99.90;;;;;;6154985;23;20496;-61
2024/03/20 03:49:44;;;;;;;13.33;7.63;;;6.80;99.90;;;;;;6154947;23;20441;-62
2024/03/20 03:52:10;;;;;;;14.80;8.77;;;6.90;99.90;;;;;;6154608;23;20530;-60
2024/03/20 03:54:37;;;;;;;16.47;8.87;;;6.90;99.90;;;;;;6154634;23;20492;-62
2024/03/20 03:57:05;;;;;;;11.87;7.37;;;6.90;99.90;;;;;;6154590;23;20414;-61
2024/03/20 03:59:31;;;;;;;19.43;9.70;;;6.90;99.90;;;;;;6154583;23;20445;-62
2024/03/20 04:01:58;;;;;;;15.30;8.63;;;6.90;99.90;;;;;;6154208;23;20493;-60
2024/03/20 04:04:29;;;;;;;18.60;8.73;;;6.90;99.90;;;;;;6155149;23;20489;-62
2024/03/20 04:06:56;;;;;;;14.53;7.87;;;6.90;99.90;;;;;;6154417;23;20426;-61
2024/03/20 04:09:23;;;;;;;14.40;9.13;;;6.80;99.90;;;;;;6154664;23;20493;-62
2024/03/20 04:11:50;;;;;;;14.80;9.20;;;6.80;99.90;;;;;;6154945;23;20477;-61
2024/03/20 04:14:17;;;;;;;14.63;7.33;;;6.80;99.90;;;;;;6154392;23;20402;-59
2024/03/20 04:16:44;;;;;;;13.60;8.03;;;6.80;99.90;;;;;;6154571;23;20446;-64
2024/03/20 04:19:11;;;;;;;15.97;9.50;;;6.80;99.90;;;;;;6154392;23;20404;-60
2024/03/20 04:21:39;;;;;;;14.90;10.00;;;6.70;99.90;;;;;;6154472;23;20438;-55
2024/03/20 04:24:07;;;;;;;15.60;8.57;;;6.70;99.90;;;;;;6154340;23;21021;-60
2024/03/20 04:26:33;;;;;;;17.23;8.77;;;6.70;99.90;;;;;;6154568;23;20990;-62
2024/03/20 04:29:00;;;;;;;16.70;9.10;;;6.70;99.90;;;;;;6153999;23;20438;-60
2024/03/20 04:31:27;;;;;;;16.13;8.50;;;6.80;99.90;;;;;;6153946;23;20402;-60
2024/03/20 04:33:54;;;;;;;17.30;7.97;;;6.80;99.90;;;;;;6154424;23;20412;-62
2024/03/20 04:36:21;;;;;;;16.50;8.87;;;6.80;99.90;;;;;;6153880;23;20481;-60
2024/03/20 04:38:50;;;;;;;12.93;8.67;;;6.80;99.90;;;;;;6154499;23;20414;-60
2024/03/20 04:41:16;;;;;;;12.57;8.80;;;6.80;99.90;;;;;;6154234;23;20916;-62
2024/03/20 04:43:43;;;;;;;15.80;9.10;;;6.80;99.90;;;;;;6153540;23;20505;-60
2024/03/20 04:46:10;;;;;;;15.13;9.70;;;6.70;99.90;;;;;;6154009;23;20524;-62
2024/03/20 04:48:37;;;;;;;19.30;9.63;;;6.70;99.90;;;;;;6154158;23;20441;-61
2024/03/20 04:51:04;;;;;;;16.43;9.10;;;6.70;99.90;;;;;;6153977;23;20481;-61
2024/03/20 04:53:33;;;;;;;15.37;8.63;;;6.70;99.90;;;;;;6154062;23;20449;-61
2024/03/20 04:56:01;;;;;;;15.40;9.73;;;6.60;99.90;;;;;;6154129;23;20402;-61
2024/03/20 04:58:28;;;;;;;14.17;8.70;;;6.70;99.90;;;;;;6154451;23;20784;-61
2024/03/20 05:00:54;;;;;;;13.20;8.40;;;6.80;99.90;;;;;;6153980;23;20412;-62
2024/03/20 05:03:21;;;;;;;18.67;8.30;;;6.80;99.90;;;;;;6153671;23;20939;-63
2024/03/20 05:05:48;;;;;;;14.70;8.60;;;6.80;99.90;;;;;;6154668;23;20726;-59
2024/03/20 05:08:15;;;;;;;18.50;9.43;;;6.90;99.90;;;;;;6154322;23;20488;-62
2024/03/20 05:10:42;;;;;;;17.53;10.17;;;6.80;99.90;;;;;;6154337;23;20513;-60
2024/03/20 05:13:10;;;;;;;14.23;8.90;;;6.80;99.90;;;;;;6153833;23;20422;-62
2024/03/20 05:15:38;;;;;;;16.27;10.37;;;6.80;99.90;;;;;;6153805;23;20521;-61
2024/03/20 05:18:08;;;;;;;13.00;9.30;;;6.80;99.90;;;;;;6153778;23;20399;-59
2024/03/20 05:20:35;;;;;;;13.90;9.53;;;6.90;99.90;;;;;;6154192;23;20781;-59
2024/03/20 05:23:01;;;;;;;15.70;8.73;;;6.80;99.90;;;;;;6153628;23;20454;-60
2024/03/20 05:25:28;;;;;;;13.87;9.67;;;6.80;99.90;;;;;;6153915;23;20413;-62
2024/03/20 05:27:53;;;;;;;14.70;9.00;;;6.70;99.90;;;;;;6154052;23;20248;-63
2024/03/20 05:30:25;;;;;;;15.93;9.23;;;6.80;99.90;;;;;;6153986;23;20415;-57
2024/03/20 05:32:51;;;;;;;16.73;11.20;;;6.80;99.90;;;;;;6153791;23;20282;-62
2024/03/20 05:35:18;;;;;;;19.30;10.30;;;6.80;99.90;;;;;;6154026;23;20939;-60
2024/03/20 05:37:43;;;;;;;12.33;9.43;;;6.70;99.90;;;;;;6154253;23;20208;-61
2024/03/20 05:40:10;;;;;;;15.50;8.87;;;6.80;99.90;;;;;;6154221;23;20733;-61
2024/03/20 05:42:37;;;;;;;14.40;8.40;;;6.70;99.90;;;;;;6154385;23;20198;-64
2024/03/20 05:45:04;;;;;;;14.70;7.83;;;6.80;99.90;;;;;;6156128;23;20422;-59
2024/03/20 05:47:32;;;;;;;21.47;9.67;;;6.80;99.90;;;;;;6155694;23;20438;-62
2024/03/20 05:49:59;;;;;;;20.30;10.83;;;6.70;99.90;;;;;;6156064;23;20763;-60
2024/03/20 05:52:25;;;;;;;16.33;9.37;;;6.70;99.90;;;;;;6155706;23;20428;-57
2024/03/20 05:54:52;;;;;;;15.20;8.80;;;6.70;99.90;;;;;;6156029;23;20406;-60
2024/03/20 05:57:18;;;;;;;17.77;10.03;;;6.70;99.90;;;;;;6156072;23;20746;-61
2024/03/20 05:59:45;;;;;;;18.30;10.87;;;6.80;99.90;;;;;;6155949;23;20409;-62
2024/03/20 06:02:11;;;;;;;18.93;10.17;;;6.80;99.90;;;;;;6154999;23;20704;-61
2024/03/20 06:04:39;;;;;;;16.63;9.40;;;6.90;99.90;;;;;;6155947;23;20402;-61
2024/03/20 06:07:05;;;;;;;17.97;10.10;;;6.90;99.90;;;;;;6155813;23;20222;-61
2024/03/20 06:09:32;;;;;;;15.03;9.60;;;6.90;99.90;;;;;;6155840;23;20433;-62
2024/03/20 06:11:59;;;;;;;18.07;9.90;;;6.90;99.90;;;;;;6155239;23;20429;-62
2024/03/20 06:14:25;;;;;;;16.93;9.40;;;6.90;99.90;;;;;;6155330;23;20460;-61
2024/03/20 06:16:52;;;;;;;14.13;9.97;;;6.90;99.90;;;;;;6155665;23;20386;-60
2024/03/20 06:19:19;;;;;;;20.57;11.73;;;7.00;99.90;;;;;;6155479;23;20465;-62
2024/03/20 06:21:46;;;;;;;16.63;10.23;;;7.00;99.90;;;;;;6155400;23;20428;-61
2024/03/20 06:24:13;;;;;;;20.63;11.43;;;7.00;99.90;;;;;;6155574;23;20410;-62
2024/03/20 06:26:39;;;;;;;18.30;10.77;;;7.20;99.90;;;;;;6155661;23;20871;-61
2024/03/20 06:29:06;;;;;;;16.23;9.70;;;7.10;99.90;;;;;;6155313;23;20430;-60
2024/03/20 06:31:31;;;;;;;15.57;9.97;;;7.20;99.90;;;;;;6155245;23;20257;-62
2024/03/20 06:33:59;;;;;;;20.03;11.17;;;7.30;99.90;;;;;;6155149;23;20441;-62
2024/03/20 06:36:24;;;;;;;15.03;10.63;;;7.30;99.90;;;;;;6155448;23;20736;-60
2024/03/20 06:38:52;;;;;;;18.57;11.33;;;7.40;99.90;;;;;;6155421;23;20410;-62
2024/03/20 06:41:18;;;;;;;15.37;10.80;;;7.40;99.90;;;;;;6155853;23;20253;-61
2024/03/20 06:43:50;;;;;;;17.20;10.70;;;7.40;99.90;;;;;;6155470;23;20469;-60
2024/03/20 06:46:16;;;;;;;19.33;10.53;;;7.50;99.90;;;;;;6157083;23;20170;-61
2024/03/20 06:48:44;;;;;;;18.23;10.37;;;7.50;99.90;;;;;;6155036;23;21012;-61
2024/03/20 06:51:10;;;;;;;25.23;11.60;;;7.60;99.90;;;;;;6154783;23;20920;-50
2024/03/20 06:53:37;;;;;;;14.30;9.87;;;7.60;99.90;;;;;;6152317;23;20434;-50
2024/03/20 06:56:05;;;;;;;23.53;11.37;;;7.70;99.90;;;;;;6154418;23;20249;-53
2024/03/20 06:58:34;;;;;;;34.47;10.97;;;7.70;99.90;;;;;;6154457;23;20969;-57
2024/03/20 07:00:59;;;;;;;16.80;10.07;;;7.80;99.90;;;;;;6155246;23;20493;-55
2024/03/20 07:03:26;;;;;;;21.03;12.07;;;7.80;99.90;;;;;;6153838;23;20449;-53
2024/03/20 07:05:53;;;;;;;21.73;12.37;;;7.90;99.90;;;;;;6154636;23;20260;-50
2024/03/20 07:08:20;;;;;;;18.43;10.17;;;7.90;99.90;;;;;;6155044;23;20485;-55
2024/03/20 07:10:46;;;;;;;56.20;12.70;;;8.00;99.90;;;;;;6155117;23;20444;-53
2024/03/20 07:13:14;;;;;;;21.70;12.50;;;8.10;99.90;;;;;;6154405;23;20751;-55
2024/03/20 07:15:40;;;;;;;23.77;12.53;;;8.20;99.90;;;;;;6154845;23;20968;-56
2024/03/20 07:18:07;;;;;;;22.30;12.90;;;8.30;99.90;;;;;;6154673;23;20493;-55
2024/03/20 07:20:33;;;;;;;20.13;10.60;;;8.30;99.90;;;;;;6155549;23;20254;-54
2024/03/20 07:23:01;;;;;;;18.43;11.40;;;8.40;99.90;;;;;;6155179;23;20803;-53
2024/03/20 07:25:27;;;;;;;25.73;12.30;;;8.50;99.90;;;;;;6155089;23;20217;-55
2024/03/20 07:27:54;;;;;;;18.30;12.10;;;8.50;99.90;;;;;;6155083;23;20445;-57
2024/03/20 07:30:21;;;;;;;20.73;11.33;;;8.60;99.90;;;;;;6155216;23;20897;-55
2024/03/20 07:32:48;;;;;;;21.50;11.27;;;8.80;99.90;;;;;;6155756;23;20502;-52
2024/03/20 07:35:14;;;;;;;24.37;11.63;;;8.90;99.90;;;;;;6154586;23;20438;-51
2024/03/20 07:37:42;;;;;;;26.50;10.57;;;9.00;99.90;;;;;;6154929;23;21062;-52
2024/03/20 07:40:09;;;;;;;21.07;12.80;;;9.10;99.90;;;;;;6154879;23;20411;-57
2024/03/20 07:42:39;;;;;;;21.97;11.80;;;9.10;99.90;;;;;;6154248;23;20422;-55
2024/03/20 07:45:07;;;;;;;19.97;11.50;;;9.10;99.90;;;;;;6154851;23;20494;-60
2024/03/20 07:47:36;;;;;;;26.90;12.80;;;9.20;99.90;;;;;;6154482;23;20434;-60
2024/03/20 07:50:03;;;;;;;16.10;11.33;;;9.20;99.90;;;;;;6155000;23;20485;-59
2024/03/20 07:52:30;;;;;;;16.60;12.10;;;9.30;99.90;;;;;;6154434;23;20425;-60
2024/03/20 07:54:56;;;;;;;20.30;12.57;;;9.40;99.90;;;;;;6154920;23;20969;-62
2024/03/20 07:57:25;;;;;;;21.47;12.77;;;9.50;99.90;;;;;;6154902;23;20440;-60
2024/03/20 07:59:50;;;;;;;24.43;14.17;;;9.60;99.90;;;;;;6155293;23;20487;-60
2024/03/20 08:02:17;;;;;;;22.77;12.20;;;9.80;99.90;;;;;;6153815;23;20966;-61
2024/03/20 08:04:45;;;;;;;24.17;13.00;;;9.90;99.90;;;;;;6154887;23;20432;-61
2024/03/20 08:07:11;;;;;;;28.03;12.70;;;10.10;99.90;;;;;;6154467;23;20434;-61
2024/03/20 08:09:38;;;;;;;20.33;12.73;;;10.20;99.90;;;;;;6154670;23;20406;-60
2024/03/20 08:12:05;;;;;;;26.97;13.83;;;10.30;99.90;;;;;;6154349;23;20432;-61
2024/03/20 08:14:32;;;;;;;20.30;12.40;;;10.40;99.90;;;;;;6154410;23;20417;-60
2024/03/20 08:16:59;;;;;;;23.17;13.10;;;10.50;99.90;;;;;;6154993;23;20623;-60
2024/03/20 08:19:25;;;;;;;22.93;11.53;;;10.70;99.90;;;;;;6154719;23;20797;-60
2024/03/20 08:21:53;;;;;;;21.10;12.80;;;10.80;99.90;;;;;;6154257;23;20422;-62
2024/03/20 08:24:19;;;;;;;22.17;13.00;;;10.90;99.90;;;;;;6154294;23;20213;-61
2024/03/20 08:26:46;;;;;;;26.47;13.30;;;11.00;99.90;;;;;;6154261;23;20442;-61
2024/03/20 08:29:11;;;;;;;21.33;12.97;;;11.10;99.90;;;;;;6154457;23;20780;-58
2024/03/20 08:31:39;;;;;;;21.90;12.37;;;11.30;99.90;;;;;;6154047;23;20406;-64
2024/03/20 08:34:05;;;;;;;18.10;11.83;;;11.60;99.90;;;;;;6154102;23;20402;-60
2024/03/20 08:36:32;;;;;;;22.03;12.40;;;12.50;98.90;;;;;;6154604;23;20711;-62
2024/03/20 08:38:59;;;;;;;26.83;12.70;;;13.80;96.80;;;;;;6154460;23;20178;-59
2024/03/20 08:41:26;;;;;;;19.97;13.73;;;15.20;91.10;;;;;;6153943;23;20410;-61
2024/03/20 08:43:52;;;;;;;21.00;14.00;;;16.30;85.20;;;;;;6154261;23;20402;-61
2024/03/20 08:46:19;;;;;;;20.30;13.03;;;17.70;77.10;;;;;;6154133;23;20409;-61
2024/03/20 08:48:45;;;;;;;23.43;13.70;;;18.90;69.40;;;;;;6154229;23;20545;-62
2024/03/20 08:51:12;;;;;;;22.40;14.53;;;19.90;62.00;;;;;;6154356;23;20489;-62
2024/03/20 08:53:38;;;;;;;13.47;10.90;;;20.70;57.40;;;;;;6153471;23;20222;-61
2024/03/20 08:56:07;;;;;;;16.33;11.93;;;21.20;52.40;;;;;;6153770;23;20399;-60
2024/03/20 08:58:36;;;;;;;16.40;13.07;;;21.20;50.90;;;;;;6153871;23;20174;-61
2024/03/20 09:01:03;;;;;;;14.90;11.17;;;21.50;49.00;;;;;;6153693;23;20417;-61
2024/03/20 09:03:30;;;;;;;17.47;11.73;;;21.50;47.50;;;;;;6153593;23;20461;-61
2024/03/20 09:05:57;;;;;;;14.50;12.00;;;21.40;47.90;;;;;;6154466;23;20464;-62
2024/03/20 09:08:22;;;;;;;15.07;11.70;;;21.60;46.80;;;;;;6153975;23;20524;-61
2024/03/20 09:10:50;;;;;;;18.87;11.00;;;21.70;47.50;;;;;;6153897;23;20489;-63
2024/03/20 09:13:17;;;;;;;17.00;11.90;;;21.40;47.10;;;;;;6153582;23;20956;-61
2024/03/20 09:15:45;;;;;;;20.03;11.40;;;21.00;47.10;;;;;;6153657;23;20414;-60
2024/03/20 09:18:10;;;;;;;15.73;10.87;;;20.70;47.60;;;;;;6154034;23;20905;-62
2024/03/20 09:20:40;;;;;;;15.40;10.60;;;20.40;48.10;;;;;;6153718;23;20518;-59
2024/03/20 09:23:06;;;;;;;13.50;9.47;;;20.20;47.20;;;;;;6153871;23;20426;-61
2024/03/20 09:25:33;;;;;;;20.77;11.10;;;19.90;47.50;;;;;;6153955;23;20484;-62
2024/03/20 09:28:00;;;;;;;12.47;9.27;;;19.90;47.80;;;;;;6153800;23;20456;-62
2024/03/20 09:30:28;;;;;;;13.63;10.13;;;19.90;48.00;;;;;;6153987;23;20406;-61
2024/03/20 09:32:54;;;;;;;18.40;9.93;;;19.80;48.00;;;;;;6153416;23;20434;-60
2024/03/20 09:35:21;;;;;;;17.57;11.60;;;19.60;48.30;;;;;;6153925;23;20402;-62
2024/03/20 09:37:47;;;;;;;21.43;12.60;;;19.40;48.80;;;;;;6154207;23;20433;-60
2024/03/20 09:40:22;;;;;;;16.13;9.77;;;19.10;49.20;;;;;;6153900;23;20892;-61
2024/03/20 09:42:50;;;;;;;16.13;8.77;;;18.60;49.80;;;;;;6153401;23;20940;-61
2024/03/20 09:45:19;;;;;;;12.10;9.10;;;18.40;50.00;;;;;;6153999;23;20402;-59
2024/03/20 09:47:48;;;;;;;13.67;9.20;;;18.20;49.50;;;;;;6153666;23;20767;-61
2024/03/20 09:50:14;;;;;;;15.73;8.10;;;18.40;49.50;;;;;;6153771;23;20465;-59
2024/03/20 09:52:41;;;;;;;11.40;7.27;;;19.10;48.90;;;;;;6153217;23;20454;-59
2024/03/20 09:55:12;;;;;;;11.40;7.73;;;19.60;48.50;;;;;;6153955;23;20922;-61
2024/03/20 09:57:41;;;;;;;10.73;6.60;;;20.00;48.00;;;;;;6154098;23;20382;-62
2024/03/20 10:00:14;;;;;;;13.17;9.20;;;20.60;47.10;;;;;;6153668;23;20406;-60
2024/03/20 10:02:41;;;;;;;12.13;7.57;;;20.80;46.70;;;;;;6154191;23;20431;-61
2024/03/20 10:05:12;;;;;;;15.17;8.00;;;21.00;48.10;;;;;;6154448;23;20402;-61
2024/03/20 10:07:39;;;;;;;9.90;7.17;;;21.20;47.40;;;;;;6153883;23;20458;-60
2024/03/20 10:10:08;;;;;;;8.80;6.97;;;21.50;47.60;;;;;;6153483;23;20885;-60
2024/03/20 10:12:35;;;;;;;12.63;7.60;;;21.90;47.60;;;;;;6153449;23;20517;-62
2024/03/20 10:15:07;;;;;;;10.83;7.70;;;21.90;47.80;;;;;;6153741;23;20410;-60
2024/03/20 10:17:34;;;;;;;15.60;9.30;;;21.80;48.10;;;;;;6153844;23;20465;-61
2024/03/20 10:20:03;;;;;;;10.13;8.63;;;22.10;47.40;;;;;;6153339;23;20410;-62
2024/03/20 10:22:32;;;;;;;9.93;6.60;;;22.10;48.30;;;;;;6153585;23;20477;-61
2024/03/20 10:24:59;;;;;;;11.93;7.97;;;22.20;48.40;;;;;;6153715;23;20414;-64
2024/03/20 10:27:26;;;;;;;8.70;6.83;;;22.50;47.30;;;;;;6153813;23;20489;-60
2024/03/20 10:29:55;;;;;;;7.23;6.13;;;22.80;47.20;;;;;;6154658;23;20412;-63
2024/03/20 10:32:21;;;;;;;11.93;7.33;;;23.00;47.20;;;;;;6155164;23;20512;-62
2024/03/20 10:34:49;;;;;;;12.07;7.10;;;23.20;47.70;;;;;;6155358;23;20406;-60
2024/03/20 10:37:16;;;;;;;11.43;7.20;;;23.00;48.10;;;;;;6155380;23;20935;-59
2024/03/20 10:39:45;;;;;;;13.40;8.43;;;22.70;48.50;;;;;;6154956;23;20409;-62
2024/03/20 10:42:13;;;;;;;12.93;8.00;;;22.40;48.60;;;;;;6155183;23;20750;-60
2024/03/20 10:44:41;;;;;;;12.73;7.30;;;22.10;49.50;;;;;;6155480;23;20904;-61
2024/03/20 10:47:10;;;;;;;9.37;7.67;;;21.90;50.60;;;;;;6155796;23;20525;-63
2024/03/20 10:49:38;;;;;;;13.10;8.80;;;22.00;50.80;;;;;;6155540;23;20402;-60
2024/03/20 10:52:04;;;;;;;9.57;7.67;;;22.20;50.20;;;;;;6154885;23;20426;-64
2024/03/20 10:54:31;;;;;;;12.10;7.87;;;22.10;50.40;;;;;;6155391;23;20780;-61
2024/03/20 10:56:59;;;;;;;12.40;7.60;;;22.20;51.00;;;;;;6155478;23;20747;-61
2024/03/20 10:59:31;;;;;;;11.87;8.43;;;22.20;51.10;;;;;;6154972;23;20429;-61
2024/03/20 11:02:00;;;;;;;15.37;8.57;;;22.10;51.30;;;;;;6154718;23;20433;-61
2024/03/20 11:04:39;;;;;;;10.90;8.50;;;21.90;52.20;;;;;;6155227;23;20410;-61
2024/03/20 11:07:33;;;;;;;16.23;9.30;;;21.80;52.20;;;;;;6154922;23;20869;-63
2024/03/20 11:10:03;;;;;;;15.37;9.13;;;21.30;52.50;;;;;;6155454;23;20414;-61
2024/03/20 11:12:33;;;;;;;13.63;8.60;;;21.00;53.10;;;;;;6155429;23;20457;-60
2024/03/20 11:15:02;;;;;;;13.83;9.00;;;20.70;53.50;;;;;;6154937;23;20421;-62
2024/03/20 11:17:33;;;;;;;13.80;8.57;;;20.40;54.00;;;;;;6155018;23;20430;-62
2024/03/20 11:20:00;;;;;;;18.57;9.40;;;20.00;54.90;;;;;;6155178;23;20441;-62
2024/03/20 11:22:26;;;;;;;13.27;8.10;;;19.80;55.50;;;;;;6154411;23;20426;-60
2024/03/20 11:24:54;;;;;;;11.30;7.73;;;19.70;56.10;;;;;;6155283;23;20414;-61
2024/03/20 11:27:22;;;;;;;11.80;9.33;;;19.60;56.50;;;;;;6154593;23;20434;-62
2024/03/20 11:29:51;;;;;;;14.33;8.77;;;19.40;56.80;;;;;;6155535;23;20402;-60
2024/03/20 11:32:21;;;;;;;11.40;9.00;;;19.20;57.20;;;;;;6154874;23;20752;-62
2024/03/20 11:34:48;;;;;;;11.90;9.27;;;19.10;57.70;;;;;;6154832;23;20402;-62
2024/03/20 11:37:15;;;;;;;15.70;8.57;;;18.90;57.90;;;;;;6155121;23;20434;-60
2024/03/20 11:39:43;;;;;;;19.57;10.17;;;18.80;58.00;;;;;;6154564;23;20402;-61
2024/03/20 11:42:10;;;;;;;15.87;8.80;;;18.70;57.90;;;;;;6154812;23;20465;-60
2024/03/20 11:44:39;;;;;;;11.50;8.20;;;18.70;59.10;;;;;;6155107;23;20402;-62
2024/03/20 11:47:13;;;;;;;15.40;9.60;;;18.70;58.60;;;;;;6154789;23;20466;-62
2024/03/20 11:49:41;;;;;;;13.80;9.23;;;18.70;59.20;;;;;;6155386;23;20740;-61
2024/03/20 11:52:14;;;;;;;17.43;9.50;;;18.60;59.10;;;;;;6154180;23;20426;-61
2024/03/20 11:54:42;;;;;;;11.37;8.17;;;18.60;59.40;;;;;;6155226;23;20486;-63
2024/03/20 11:57:09;;;;;;;18.20;9.33;;;18.50;59.70;;;;;;6154763;23;20407;-62
2024/03/20 11:59:36;;;;;;;17.60;10.10;;;18.60;60.30;;;;;;6154700;23;20398;-60
2024/03/20 12:02:02;;;;;;;18.03;11.57;;;18.60;60.40;;;;;;6154783;23;20450;-61
2024/03/20 12:04:34;;;;;;;14.27;8.47;;;18.60;60.40;;;;;;6154653;23;20434;-60
2024/03/20 12:07:00;;;;;;;15.27;10.63;;;18.50;61.10;;;;;;6154639;23;20389;-62
2024/03/20 12:09:27;;;;;;;16.57;10.00;;;18.50;61.90;;;;;;6154710;23;20409;-60
2024/03/20 12:11:58;;;;;;;13.40;8.63;;;18.60;62.60;;;;;;6154190;23;20976;-62
2024/03/20 12:14:26;;;;;;;14.53;9.50;;;18.60;62.10;;;;;;6154865;23;20414;-62
2024/03/20 12:16:53;;;;;;;13.20;8.80;;;18.70;62.00;;;;;;6154653;23;20406;-62
2024/03/20 12:19:20;;;;;;;14.43;8.97;;;18.70;61.50;;;;;;6154364;23;20395;-62
2024/03/20 12:21:48;;;;;;;15.23;8.00;;;18.60;62.40;;;;;;6154407;23;20425;-63
2024/03/20 12:24:15;;;;;;;15.13;8.37;;;18.70;62.10;;;;;;6154535;23;20489;-63
2024/03/20 12:26:40;;;;;;;10.40;7.90;;;18.70;61.70;;;;;;6154697;23;20437;-61
2024/03/20 12:29:07;;;;;;;11.60;8.13;;;18.70;62.00;;;;;;6154319;23;20433;-61
2024/03/20 12:31:40;;;;;;;14.97;8.57;;;18.80;62.50;;;;;;6154531;23;20250;-62
2024/03/20 12:34:08;;;;;;;11.47;8.00;;;18.80;62.10;;;;;;6154606;23;20386;-61
2024/03/20 12:36:34;;;;;;;11.93;8.67;;;18.80;62.10;;;;;;6154028;23;20402;-61
2024/03/20 12:39:02;;;;;;;18.80;9.13;;;18.80;62.30;;;;;;6154660;23;20403;-61
2024/03/20 12:41:28;;;;;;;14.53;9.90;;;18.90;62.40;;;;;;6154597;23;20731;-63